createdAt,value
2018-08-31T00:00:58.568Z,93.90
2018-08-31T00:03:39.054Z,93.90
2018-08-31T00:06:18.898Z,94.10
2018-08-31T00:08:58.609Z,94.40
2018-08-31T00:12:42.008Z,94.50
2018-08-31T00:15:10.713Z,94.50
2018-08-31T00:17:40.527Z,94.80
2018-08-31T00:20:10.027Z,94.90
2018-08-31T00:22:38.605Z,94.70
2018-08-31T00:26:18.956Z,94.70
2018-08-31T00:29:46.992Z,94.80
2018-08-31T00:35:31.233Z,94.70
2018-08-31T00:38:16.850Z,94.60
2018-08-31T00:41:07.963Z,94.70
2018-08-31T00:43:47.672Z,94.40
2018-08-31T00:46:16.199Z,94.50
2018-08-31T00:48:44.761Z,94.40
2018-08-31T00:51:13.346Z,94.80
2018-08-31T00:53:41.918Z,94.70
2018-08-31T00:56:10.459Z,94.80
2018-08-31T00:58:39.045Z,94.70
2018-08-31T01:01:07.585Z,94.50
2018-08-31T01:03:36.119Z,95.00
2018-08-31T01:06:04.623Z,94.60
2018-08-31T01:08:33.159Z,95.10
2018-08-31T01:11:05.715Z,95.50
2018-08-31T01:13:34.322Z,95.60
2018-08-31T01:16:04.855Z,95.70
2018-08-31T01:18:33.405Z,95.70
2018-08-31T01:21:02.699Z,95.80
2018-08-31T01:23:31.247Z,95.90
2018-08-31T01:25:59.839Z,95.90
2018-08-31T01:28:28.345Z,96.00
2018-08-31T01:30:56.954Z,95.90
2018-08-31T01:33:25.475Z,95.90
2018-08-31T01:35:54.037Z,95.90
2018-08-31T01:38:22.557Z,96.20
2018-08-31T01:40:51.109Z,96.20
2018-08-31T01:43:19.671Z,95.90
2018-08-31T01:45:48.212Z,96.00
2018-08-31T01:48:16.748Z,96.30
2018-08-31T01:50:50.503Z,96.40
2018-08-31T01:53:19.031Z,96.30
2018-08-31T01:55:47.559Z,96.50
2018-08-31T01:58:16.067Z,96.80
2018-08-31T02:00:44.631Z,96.90
2018-08-31T02:03:13.107Z,96.90
2018-08-31T02:05:41.667Z,96.90
2018-08-31T02:08:10.219Z,97.10
2018-08-31T02:10:38.731Z,97.20
2018-08-31T02:13:07.282Z,97.10
2018-08-31T02:15:35.851Z,96.80
2018-08-31T02:18:04.507Z,96.90
2018-08-31T02:20:33.036Z,97.20
2018-08-31T02:23:02.534Z,97.30
2018-08-31T02:25:31.083Z,97.60
2018-08-31T02:27:59.641Z,97.60
2018-08-31T02:30:28.183Z,97.60
2018-08-31T02:32:56.807Z,97.60
2018-08-31T02:35:25.333Z,97.70
2018-08-31T02:37:53.885Z,97.60
2018-08-31T02:40:22.427Z,97.60
2018-08-31T02:42:50.989Z,97.40
2018-08-31T02:45:19.511Z,97.50
2018-08-31T02:47:48.398Z,97.50
2018-08-31T02:50:17.031Z,97.50
2018-08-31T02:52:45.565Z,97.60
2018-08-31T02:55:14.072Z,97.60
2018-08-31T02:57:42.637Z,97.60
2018-08-31T03:00:11.193Z,97.70
2018-08-31T03:02:39.755Z,97.60
2018-08-31T03:05:08.445Z,97.80
2018-08-31T03:07:36.947Z,97.70
2018-08-31T03:10:05.719Z,97.70
2018-08-31T03:12:34.232Z,97.70
2018-08-31T03:15:03.520Z,97.60
2018-08-31T03:17:32.079Z,97.80
2018-08-31T03:20:00.635Z,97.80
2018-08-31T03:22:29.148Z,97.90
2018-08-31T03:24:57.784Z,98.00
2018-08-31T03:27:26.279Z,98.10
2018-08-31T03:29:54.921Z,98.20
2018-08-31T03:32:23.427Z,98.20
2018-08-31T03:34:52.328Z,98.10
2018-08-31T03:37:20.939Z,98.20
2018-08-31T03:39:49.608Z,98.10
2018-08-31T03:42:18.103Z,98.10
2018-08-31T03:44:46.651Z,98.00
2018-08-31T03:47:15.223Z,97.90
2018-08-31T03:49:43.842Z,98.00
2018-08-31T03:52:12.339Z,97.90
2018-08-31T03:54:40.938Z,98.00
2018-08-31T03:57:09.983Z,98.00
2018-08-31T03:59:38.540Z,98.20
2018-08-31T04:02:07.068Z,98.20
2018-08-31T04:04:35.600Z,98.10
2018-08-31T04:07:08.764Z,98.20
2018-08-31T04:09:37.307Z,98.40
2018-08-31T04:12:05.898Z,98.20
2018-08-31T04:14:34.446Z,98.40
2018-08-31T04:17:03.532Z,98.50
2018-08-31T04:19:32.123Z,98.60
2018-08-31T04:22:00.718Z,98.70
2018-08-31T04:24:29.222Z,98.70
2018-08-31T04:26:57.866Z,98.80
2018-08-31T04:29:26.485Z,98.90
2018-08-31T04:31:55.054Z,98.90
2018-08-31T04:34:23.657Z,98.90
2018-08-31T04:36:52.282Z,98.80
2018-08-31T04:39:20.842Z,98.90
2018-08-31T04:41:49.690Z,99.00
2018-08-31T04:44:18.238Z,99.00
2018-08-31T04:46:46.914Z,99.10
2018-08-31T04:49:15.471Z,99.10
2018-08-31T04:51:44.059Z,99.10
2018-08-31T04:54:12.623Z,99.50
2018-08-31T04:56:41.216Z,99.20
2018-08-31T04:59:09.837Z,99.00
2018-08-31T05:01:38.394Z,98.90
2018-08-31T05:04:07.007Z,98.70
2018-08-31T05:06:35.894Z,99.00
2018-08-31T05:09:06.534Z,98.90
2018-08-31T05:11:35.105Z,98.60
2018-08-31T05:14:03.977Z,98.70
2018-08-31T05:16:32.642Z,98.70
2018-08-31T05:19:02.013Z,98.70
2018-08-31T05:21:30.616Z,98.70
2018-08-31T05:23:59.279Z,98.50
2018-08-31T05:26:27.909Z,98.90
2018-08-31T05:28:56.668Z,98.90
2018-08-31T05:31:25.358Z,98.70
2018-08-31T05:33:54.048Z,98.60
2018-08-31T05:36:22.619Z,98.50
2018-08-31T05:38:51.231Z,98.60
2018-08-31T05:41:20.133Z,98.70
2018-08-31T05:43:48.744Z,98.80
2018-08-31T05:46:17.302Z,98.70
2018-08-31T05:48:45.935Z,98.30
2018-08-31T05:51:14.560Z,98.10
2018-08-31T05:53:43.207Z,97.60
2018-08-31T05:56:11.768Z,97.50
2018-08-31T05:58:40.458Z,97.40
2018-08-31T06:01:09.324Z,97.30
2018-08-31T06:03:37.860Z,97.00
2018-08-31T06:06:06.474Z,97.00
2018-08-31T06:08:34.996Z,97.10
2018-08-31T06:11:03.691Z,96.90
2018-08-31T06:13:32.364Z,96.80
2018-08-31T06:16:03.829Z,96.60
2018-08-31T06:18:32.516Z,96.50
2018-08-31T06:21:02.948Z,96.30
2018-08-31T06:23:31.487Z,95.00
2018-08-31T06:26:00.144Z,95.10
2018-08-31T06:28:28.733Z,95.40
2018-08-31T06:30:57.412Z,95.10
2018-08-31T06:33:26.039Z,94.60
2018-08-31T06:35:54.752Z,94.20
2018-08-31T06:38:23.297Z,94.20
2018-08-31T06:40:51.963Z,94.10
2018-08-31T06:43:20.488Z,93.70
2018-08-31T06:45:49.092Z,93.40
2018-08-31T06:48:17.654Z,93.50
2018-08-31T06:50:46.281Z,93.00
2018-08-31T06:53:14.887Z,93.30
2018-08-31T06:55:43.442Z,92.40
2018-08-31T06:58:12.093Z,91.90
2018-08-31T07:00:40.608Z,91.60
2018-08-31T07:03:09.199Z,91.10
2018-08-31T07:05:37.742Z,91.00
2018-08-31T07:08:06.519Z,91.10
2018-08-31T07:10:35.215Z,91.20
2018-08-31T07:13:03.808Z,90.60
2018-08-31T07:15:32.364Z,90.10
2018-08-31T07:18:03.508Z,90.40
2018-08-31T07:20:32.064Z,90.00
2018-08-31T07:23:00.739Z,89.70
2018-08-31T07:25:29.266Z,90.30
2018-08-31T07:27:57.860Z,90.50
2018-08-31T07:30:26.415Z,90.60
2018-08-31T07:32:55.059Z,90.90
2018-08-31T07:35:23.635Z,90.60
2018-08-31T07:37:52.380Z,90.40
2018-08-31T07:40:21.131Z,90.30
2018-08-31T07:42:49.759Z,90.80
2018-08-31T07:45:18.375Z,90.40
2018-08-31T07:47:47.025Z,90.20
2018-08-31T07:50:15.584Z,90.00
2018-08-31T07:52:44.150Z,89.30
2018-08-31T07:55:12.875Z,88.40
2018-08-31T07:57:41.606Z,89.80
2018-08-31T08:00:10.322Z,89.60
2018-08-31T08:02:38.906Z,89.40
2018-08-31T08:05:07.546Z,89.60
2018-08-31T08:07:36.220Z,89.40
2018-08-31T08:10:04.943Z,90.00
2018-08-31T08:12:33.656Z,90.00
2018-08-31T08:15:02.453Z,89.30
2018-08-31T08:17:31.022Z,89.40
2018-08-31T08:19:59.595Z,89.40
2018-08-31T08:22:28.183Z,88.80
2018-08-31T08:24:56.835Z,87.40
2018-08-31T08:27:26.206Z,87.90
2018-08-31T08:29:54.923Z,88.00
2018-08-31T08:32:23.502Z,87.10
2018-08-31T08:34:52.182Z,86.80
2018-08-31T08:37:20.835Z,87.50
2018-08-31T08:39:49.604Z,88.00
2018-08-31T08:42:18.858Z,88.10
2018-08-31T08:44:47.453Z,88.10
2018-08-31T08:47:16.034Z,89.10
2018-08-31T08:49:44.722Z,87.50
2018-08-31T08:52:13.439Z,87.60
2018-08-31T08:54:42.183Z,87.40
2018-08-31T08:57:13.748Z,86.50
2018-08-31T08:59:42.972Z,86.20
2018-08-31T09:02:11.639Z,86.00
2018-08-31T09:04:40.213Z,86.30
2018-08-31T09:07:10.245Z,84.70
2018-08-31T09:09:38.795Z,84.50
2018-08-31T09:12:07.476Z,84.70
2018-08-31T09:14:36.034Z,84.40
2018-08-31T09:17:04.948Z,85.00
2018-08-31T09:19:33.619Z,85.70
2018-08-31T09:22:03.095Z,86.80
2018-08-31T09:24:31.795Z,85.10
2018-08-31T09:27:00.490Z,83.50
2018-08-31T09:29:29.188Z,84.60
2018-08-31T09:31:57.838Z,85.60
2018-08-31T09:34:26.512Z,85.90
2018-08-31T09:36:55.186Z,84.80
2018-08-31T09:39:23.788Z,85.00
2018-08-31T09:41:52.417Z,86.20
2018-08-31T09:44:20.994Z,86.10
2018-08-31T09:46:49.607Z,86.40
2018-08-31T09:49:18.117Z,85.80
2018-08-31T09:51:46.804Z,84.20
2018-08-31T09:54:15.453Z,85.30
2018-08-31T09:56:44.943Z,85.90
2018-08-31T09:59:13.573Z,86.20
2018-08-31T10:01:42.254Z,86.10
2018-08-31T10:04:10.786Z,85.60
2018-08-31T10:06:39.418Z,85.60
2018-08-31T10:09:09.267Z,86.60
2018-08-31T10:11:38.256Z,85.90
2018-08-31T10:14:06.875Z,87.20
2018-08-31T10:16:35.616Z,87.30
2018-08-31T10:19:04.348Z,86.40
2018-08-31T10:21:32.915Z,85.60
2018-08-31T10:24:02.920Z,85.40
2018-08-31T10:26:31.493Z,85.30
2018-08-31T10:29:00.191Z,84.90
2018-08-31T10:31:28.887Z,85.20
2018-08-31T10:33:57.604Z,83.10
2018-08-31T10:36:26.254Z,82.90
2018-08-31T10:38:55.045Z,83.30
2018-08-31T10:41:23.715Z,82.80
2018-08-31T10:43:52.335Z,80.90
2018-08-31T10:46:20.965Z,82.00
2018-08-31T10:48:49.629Z,82.20
2018-08-31T10:51:18.231Z,81.80
2018-08-31T10:53:46.889Z,80.90
2018-08-31T10:56:15.587Z,78.60
2018-08-31T10:58:44.293Z,78.70
2018-08-31T11:01:13.000Z,77.10
2018-08-31T11:03:41.749Z,76.90
2018-08-31T11:06:10.418Z,75.30
2018-08-31T11:08:39.133Z,74.70
2018-08-31T11:11:08.079Z,75.00
2018-08-31T11:13:36.686Z,74.80
2018-08-31T11:16:05.395Z,75.00
2018-08-31T11:18:33.968Z,73.40
2018-08-31T11:21:02.950Z,73.40
2018-08-31T11:23:31.713Z,74.40
2018-08-31T11:26:00.439Z,73.10
2018-08-31T11:28:29.079Z,71.40
2018-08-31T11:30:57.793Z,71.60
2018-08-31T11:33:26.424Z,71.00
2018-08-31T11:35:55.142Z,69.90
2018-08-31T11:38:23.753Z,69.00
2018-08-31T11:40:52.380Z,68.60
2018-08-31T11:43:20.996Z,70.30
2018-08-31T11:45:49.664Z,69.30
2018-08-31T11:48:18.287Z,67.10
2018-08-31T11:50:46.831Z,69.00
2018-08-31T11:53:15.391Z,67.90
2018-08-31T11:55:43.977Z,68.80
2018-08-31T11:58:12.530Z,68.60
2018-08-31T12:00:41.053Z,68.20
2018-08-31T12:03:09.632Z,67.70
2018-08-31T12:05:38.151Z,66.70
2018-08-31T12:08:06.709Z,67.80
2018-08-31T12:10:35.258Z,68.10
2018-08-31T12:13:03.820Z,67.30
2018-08-31T12:15:32.372Z,67.30
2018-08-31T12:18:03.556Z,67.10
2018-08-31T12:20:32.120Z,66.60
2018-08-31T12:23:00.708Z,66.80
2018-08-31T12:25:29.202Z,64.70
2018-08-31T12:27:57.796Z,63.90
2018-08-31T12:30:26.379Z,63.30
2018-08-31T12:32:55.235Z,62.40
2018-08-31T12:35:23.850Z,62.70
2018-08-31T12:37:52.404Z,62.40
2018-08-31T12:40:20.994Z,62.90
2018-08-31T12:42:49.557Z,62.30
2018-08-31T12:45:18.120Z,60.80
2018-08-31T12:47:46.640Z,62.70
2018-08-31T12:50:15.199Z,60.40
2018-08-31T12:52:43.706Z,59.90
2018-08-31T12:55:12.248Z,59.90
2018-08-31T12:57:40.755Z,61.30
2018-08-31T13:00:09.383Z,59.30
2018-08-31T13:02:37.942Z,60.30
2018-08-31T13:05:07.106Z,61.00
2018-08-31T13:07:35.614Z,59.60
2018-08-31T13:10:04.318Z,58.80
2018-08-31T13:12:32.910Z,59.50
2018-08-31T13:15:03.046Z,60.20
2018-08-31T13:17:31.570Z,59.70
2018-08-31T13:20:00.171Z,61.50
2018-08-31T13:22:28.599Z,61.70
2018-08-31T13:24:57.266Z,61.90
2018-08-31T13:27:25.794Z,62.00
2018-08-31T13:29:54.381Z,63.20
2018-08-31T13:32:22.949Z,63.70
2018-08-31T13:34:51.513Z,65.10
2018-08-31T13:37:20.075Z,63.00
2018-08-31T13:39:48.616Z,64.00
2018-08-31T13:42:17.204Z,67.30
2018-08-31T13:44:45.718Z,66.80
2018-08-31T13:47:14.250Z,66.00
2018-08-31T13:49:42.810Z,65.10
2018-08-31T13:52:11.355Z,65.40
2018-08-31T13:54:39.912Z,66.80
2018-08-31T13:57:08.832Z,66.50
2018-08-31T13:59:37.392Z,66.50
2018-08-31T14:02:06.082Z,67.20
2018-08-31T14:04:34.586Z,65.70
2018-08-31T14:07:03.139Z,65.50
2018-08-31T14:09:31.692Z,65.90
2018-08-31T14:12:00.300Z,67.00
2018-08-31T14:14:28.857Z,68.30
2018-08-31T14:16:57.419Z,67.90
2018-08-31T14:19:26.030Z,69.10
2018-08-31T14:21:54.781Z,71.80
2018-08-31T14:24:23.330Z,72.50
2018-08-31T14:26:52.070Z,72.30
2018-08-31T14:29:20.677Z,71.90
2018-08-31T14:31:49.232Z,72.80
2018-08-31T14:34:17.863Z,72.30
2018-08-31T14:36:46.379Z,73.60
2018-08-31T14:39:14.917Z,74.50
2018-08-31T14:41:43.459Z,76.60
2018-08-31T14:44:12.003Z,76.30
2018-08-31T14:46:40.524Z,80.00
2018-08-31T14:49:09.488Z,83.90
2018-08-31T14:51:38.220Z,85.70
2018-08-31T14:54:08.447Z,87.70
2018-08-31T14:56:36.968Z,90.10
2018-08-31T14:59:05.723Z,90.60
2018-08-31T15:01:34.255Z,91.40
2018-08-31T15:04:03.692Z,92.50
2018-08-31T15:06:32.151Z,94.50
2018-08-31T15:09:00.700Z,95.00
2018-08-31T15:11:29.225Z,94.90
2018-08-31T15:13:57.784Z,95.90
2018-08-31T15:16:26.309Z,96.60
2018-08-31T15:18:54.915Z,96.80
2018-08-31T15:21:23.443Z,97.10
2018-08-31T15:23:52.007Z,96.90
2018-08-31T15:26:20.579Z,96.40
2018-08-31T15:28:49.084Z,96.40
2018-08-31T15:31:17.805Z,96.10
2018-08-31T15:33:46.244Z,95.50
2018-08-31T15:36:14.807Z,95.80
2018-08-31T15:38:43.355Z,96.10
2018-08-31T15:41:12.062Z,95.50
2018-08-31T15:43:40.556Z,95.40
2018-08-31T15:46:09.103Z,95.70
2018-08-31T15:48:37.604Z,95.50
2018-08-31T15:51:06.195Z,94.70
2018-08-31T15:53:34.732Z,94.40
2018-08-31T15:56:03.368Z,95.40
2018-08-31T15:58:31.879Z,95.20
2018-08-31T16:01:00.611Z,95.00
2018-08-31T16:03:29.127Z,95.00
2018-08-31T16:05:57.751Z,94.30
2018-08-31T16:08:26.267Z,94.10
2018-08-31T16:10:54.835Z,94.60
2018-08-31T16:13:23.373Z,94.80
2018-08-31T16:15:51.963Z,94.60
2018-08-31T16:18:20.760Z,94.00
2018-08-31T16:20:49.318Z,93.90
2018-08-31T16:23:17.871Z,94.30
2018-08-31T16:25:46.400Z,94.40
2018-08-31T16:28:14.935Z,94.20
2018-08-31T16:30:43.611Z,93.90
2018-08-31T16:33:12.217Z,94.20
2018-08-31T16:35:40.755Z,93.90
2018-08-31T16:38:09.358Z,94.00
2018-08-31T16:40:37.903Z,94.20
2018-08-31T16:43:06.528Z,94.40
2018-08-31T16:45:35.067Z,94.60
2018-08-31T16:48:03.655Z,94.70
2018-08-31T16:50:32.218Z,94.80
2018-08-31T16:53:00.852Z,95.40
2018-08-31T16:55:29.587Z,96.00
2018-08-31T16:57:58.192Z,95.10
2018-08-31T17:00:26.711Z,95.10
2018-08-31T17:02:55.280Z,94.40
2018-08-31T17:05:23.785Z,95.30
2018-08-31T17:07:52.460Z,95.40
2018-08-31T17:10:20.957Z,96.20
2018-08-31T17:12:49.519Z,97.20
2018-08-31T17:15:18.117Z,97.50
2018-08-31T17:17:46.823Z,97.80
2018-08-31T17:20:15.399Z,97.90
2018-08-31T17:22:44.039Z,97.90
2018-08-31T17:25:12.643Z,98.00
2018-08-31T17:27:46.748Z,98.00
2018-08-31T17:30:22.289Z,98.10
2018-08-31T17:32:56.097Z,98.30
2018-08-31T17:35:29.892Z,98.50
2018-08-31T17:37:59.986Z,98.50
2018-08-31T17:40:28.651Z,98.70
2018-08-31T17:42:57.331Z,98.90
2018-08-31T17:45:26.005Z,99.10
2018-08-31T17:47:54.611Z,99.30
2018-08-31T17:50:23.250Z,99.40
2018-08-31T17:52:51.950Z,99.50
2018-08-31T17:55:20.811Z,99.70
2018-08-31T17:57:49.473Z,99.80
2018-08-31T18:00:18.043Z,99.90
2018-08-31T18:02:46.626Z,99.90
2018-08-31T18:05:15.274Z,99.90
2018-08-31T18:07:43.922Z,99.90
2018-08-31T18:10:13.236Z,99.90
2018-08-31T18:12:41.863Z,99.90
2018-08-31T18:15:10.477Z,99.90
2018-08-31T18:17:38.957Z,99.90
2018-08-31T18:20:07.687Z,99.90
2018-08-31T18:22:36.290Z,99.90
2018-08-31T18:25:05.194Z,99.90
2018-08-31T18:27:33.874Z,99.90
2018-08-31T18:30:02.918Z,99.90
2018-08-31T18:32:31.626Z,99.90
2018-08-31T18:35:00.203Z,99.90
2018-08-31T18:37:28.847Z,99.90
2018-08-31T18:39:57.467Z,99.90
2018-08-31T18:42:26.092Z,99.90
2018-08-31T18:44:54.670Z,99.90
2018-08-31T18:47:23.307Z,99.90
2018-08-31T18:49:51.939Z,99.90
2018-08-31T18:52:20.551Z,99.90
2018-08-31T18:54:49.755Z,99.90
2018-08-31T18:57:18.450Z,99.90
2018-08-31T18:59:47.319Z,99.90
2018-08-31T19:02:15.931Z,99.90
2018-08-31T19:04:45.158Z,99.90
2018-08-31T19:07:13.874Z,99.90
2018-08-31T19:09:43.450Z,99.90
2018-08-31T19:12:12.074Z,99.90
2018-08-31T19:14:40.884Z,99.90
2018-08-31T19:17:09.946Z,99.90
2018-08-31T19:19:38.488Z,99.90
2018-08-31T19:22:07.075Z,99.90
2018-08-31T19:24:35.872Z,99.90
2018-08-31T19:27:05.952Z,99.90
2018-08-31T19:29:35.213Z,99.90
2018-08-31T19:32:06.084Z,99.90
2018-08-31T19:34:34.784Z,99.90
2018-08-31T19:37:04.498Z,99.90
2018-08-31T19:39:33.143Z,99.90
2018-08-31T19:42:01.852Z,99.90
2018-08-31T19:44:31.500Z,99.90
2018-08-31T19:47:00.234Z,99.90
2018-08-31T19:49:31.003Z,99.80
2018-08-31T19:52:00.235Z,99.80
2018-08-31T19:54:29.029Z,99.80
2018-08-31T19:56:57.634Z,99.80
2018-08-31T19:59:26.609Z,99.90
2018-08-31T20:01:55.210Z,99.70
2018-08-31T20:04:24.188Z,99.90
2018-08-31T20:06:53.089Z,99.90
2018-08-31T20:09:22.022Z,99.90
2018-08-31T20:11:50.704Z,99.90
2018-08-31T20:14:19.808Z,99.90
2018-08-31T20:16:48.696Z,99.90
2018-08-31T20:19:17.471Z,99.90
2018-08-31T20:21:46.130Z,99.90
2018-08-31T20:24:14.632Z,99.90
2018-08-31T20:26:43.181Z,99.90
2018-08-31T20:29:12.204Z,99.90
2018-08-31T20:31:40.853Z,99.90
2018-08-31T20:34:09.407Z,99.90
2018-08-31T20:36:38.339Z,99.90
2018-08-31T20:39:09.534Z,99.90
2018-08-31T20:41:38.240Z,99.90
2018-08-31T20:44:06.839Z,99.90
2018-08-31T20:46:35.483Z,99.90
2018-08-31T20:49:04.282Z,99.90
2018-08-31T20:51:32.935Z,99.90
2018-08-31T20:54:01.540Z,99.90
2018-08-31T20:56:30.112Z,99.90
2018-08-31T20:58:58.703Z,99.90
2018-08-31T21:01:27.276Z,99.90
2018-08-31T21:03:55.959Z,99.90
2018-08-31T21:06:24.615Z,99.90
2018-08-31T21:08:53.259Z,99.90
2018-08-31T21:11:21.884Z,99.90
2018-08-31T21:13:50.557Z,99.90
2018-08-31T21:16:19.130Z,99.90
2018-08-31T21:18:47.723Z,99.90
2018-08-31T21:21:16.251Z,99.90
2018-08-31T21:23:44.861Z,99.90
2018-08-31T21:26:13.476Z,99.90
2018-08-31T21:28:42.143Z,99.90
2018-08-31T21:31:10.701Z,99.90
2018-08-31T21:33:39.314Z,99.90
2018-08-31T21:36:07.858Z,99.90
2018-08-31T21:38:36.479Z,99.90
2018-08-31T21:41:04.999Z,99.90
2018-08-31T21:43:33.715Z,99.90
2018-08-31T21:46:02.283Z,99.90
2018-08-31T21:48:30.855Z,99.90
2018-08-31T21:50:59.450Z,99.90
2018-08-31T21:53:28.015Z,99.90
2018-08-31T21:55:56.600Z,99.90
2018-08-31T21:58:25.223Z,99.90
2018-08-31T22:00:57.989Z,99.90
2018-08-31T22:03:26.601Z,99.90
2018-08-31T22:05:55.163Z,99.90
2018-08-31T22:08:23.765Z,99.90
2018-08-31T22:10:52.379Z,99.90
2018-08-31T22:13:21.042Z,99.90
2018-08-31T22:15:49.780Z,99.90
2018-08-31T22:18:18.451Z,99.90
2018-08-31T22:20:47.115Z,99.90
2018-08-31T22:23:15.754Z,99.90
2018-08-31T22:25:44.327Z,99.90
2018-08-31T22:28:12.922Z,99.90
2018-08-31T22:30:41.622Z,99.90
2018-08-31T22:33:10.143Z,99.90
2018-08-31T22:35:38.839Z,99.90
2018-08-31T22:38:07.389Z,99.90
2018-08-31T22:40:35.972Z,99.90
2018-08-31T22:43:04.810Z,99.90
2018-08-31T22:45:33.420Z,99.90
2018-08-31T22:48:02.079Z,99.90
2018-08-31T22:50:30.659Z,99.90
2018-08-31T22:52:59.179Z,99.90
2018-08-31T22:55:27.829Z,99.90
2018-08-31T22:57:56.364Z,99.90
2018-08-31T23:00:26.510Z,99.90
2018-08-31T23:02:55.722Z,99.90
2018-08-31T23:05:24.270Z,99.90
2018-08-31T23:08:03.118Z,99.90
2018-08-31T23:10:32.632Z,99.90
2018-08-31T23:13:02.934Z,99.90
2018-08-31T23:15:31.512Z,99.90
2018-08-31T23:18:00.138Z,99.90
2018-08-31T23:20:28.650Z,99.90
2018-08-31T23:23:03.605Z,99.90
2018-08-31T23:25:37.502Z,99.90
2018-08-31T23:28:06.076Z,99.90
2018-08-31T23:30:34.631Z,99.90
2018-08-31T23:33:03.282Z,99.90
2018-08-31T23:35:31.768Z,99.90
2018-08-31T23:38:00.444Z,99.90
2018-08-31T23:40:28.966Z,99.90
2018-08-31T23:42:57.744Z,99.90
2018-08-31T23:45:26.292Z,99.90
2018-08-31T23:47:54.835Z,99.90
2018-08-31T23:50:23.407Z,99.90
2018-08-31T23:52:51.957Z,99.90
2018-08-31T23:55:20.581Z,99.90
2018-08-31T23:57:49.171Z,99.90
